Time;durP1;ratioP1;P1;durP2;ratioP2;P2;SDS_P1;SDS_P2;PMS_P1;PMS_P2;Temp;Humidity;BMP_temperature;BMP_pressure;BME280_temperature;BME280_humidity;BME280_pressure;Samples;Min_cycle;Max_cycle;Signal;HPM_P1;HPM_P2
2023/05/14 00:00:44;;;;;;;31.98;18.13;;;11.00;99.90;;;;;;4821412;29;20054;-58
2023/05/14 00:03:14;;;;;;;31.70;16.27;;;11.10;99.90;;;;;;4821183;29;20058;-59
2023/05/14 00:05:43;;;;;;;27.55;17.10;;;;;;;;;;4835057;29;20050;-58
2023/05/14 00:08:11;;;;;;;26.48;16.50;;;11.00;99.90;;;;;;4828159;29;20057;-59
2023/05/14 00:10:38;;;;;;;27.23;17.02;;;11.00;99.90;;;;;;4837594;29;20053;-59
2023/05/14 00:13:10;;;;;;;33.15;17.17;;;11.00;99.90;;;;;;4837720;29;20050;-60
2023/05/14 00:15:39;;;;;;;28.55;16.90;;;10.90;99.90;;;;;;4838030;29;20053;-59
2023/05/14 00:18:11;;;;;;;27.90;16.48;;;10.90;99.90;;;;;;4835583;29;20063;-61
2023/05/14 00:20:40;;;;;;;27.42;16.20;;;10.80;99.90;;;;;;4821481;29;20072;-59
2023/05/14 00:23:08;;;;;;;32.28;16.83;;;10.80;99.90;;;;;;4835692;29;20046;-59
2023/05/14 00:25:36;;;;;;;32.70;18.52;;;10.80;99.90;;;;;;4830376;29;20057;-60
2023/05/14 00:28:04;;;;;;;30.23;17.83;;;10.80;99.90;;;;;;4836986;29;20049;-61
2023/05/14 00:30:32;;;;;;;30.48;18.48;;;10.70;99.90;;;;;;4836862;29;20045;-60
2023/05/14 00:33:00;;;;;;;30.10;18.00;;;10.70;99.90;;;;;;4836823;29;20061;-59
2023/05/14 00:35:28;;;;;;;28.77;16.58;;;10.60;99.90;;;;;;4836755;29;20061;-59
2023/05/14 00:37:56;;;;;;;38.30;19.27;;;10.60;99.90;;;;;;4811688;29;20514;-60
2023/05/14 00:40:26;;;;;;;36.08;19.42;;;10.60;99.90;;;;;;4828450;29;20053;-59
2023/05/14 00:42:55;;;;;;;28.85;18.23;;;10.60;99.90;;;;;;4838807;29;20042;-60
2023/05/14 00:45:30;;;;;;;38.85;19.80;;;10.50;99.90;;;;;;4840772;29;20065;-59
2023/05/14 00:47:57;;;;;;;32.90;19.83;;;10.50;99.90;;;;;;4836019;29;20047;-59
2023/05/14 00:50:26;;;;;;;30.30;17.63;;;10.40;99.90;;;;;;4841043;29;20069;-60
2023/05/14 00:52:54;;;;;;;33.45;18.00;;;10.50;99.90;;;;;;4824301;29;20077;-60
2023/05/14 00:55:25;;;;;;;30.75;17.80;;;10.40;99.90;;;;;;4823778;29;20411;-59
2023/05/14 00:57:54;;;;;;;30.92;17.92;;;10.40;99.90;;;;;;4807780;29;20047;-59
2023/05/14 01:00:22;;;;;;;32.33;19.65;;;10.40;99.90;;;;;;4834944;29;20057;-59
2023/05/14 01:02:50;;;;;;;30.10;18.48;;;10.30;99.90;;;;;;4837742;29;20050;-61
2023/05/14 01:05:19;;;;;;;33.40;18.80;;;10.30;99.90;;;;;;4817890;29;20058;-61
2023/05/14 01:08:04;;;;;;;36.97;17.83;;;10.30;99.90;;;;;;4838102;29;20053;-59
2023/05/14 01:10:41;;;;;;;34.85;18.77;;;10.30;99.90;;;;;;4830805;29;20447;-59
2023/05/14 01:13:27;;;;;;;32.42;18.20;;;10.20;99.90;;;;;;4836517;29;20049;-59
2023/05/14 01:15:59;;;;;;;29.30;17.23;;;10.20;99.90;;;;;;4827938;29;20054;-59
2023/05/14 01:18:28;;;;;;;30.52;17.83;;;10.20;99.90;;;;;;4837131;29;20054;-59
2023/05/14 01:20:56;;;;;;;31.70;17.52;;;10.20;99.90;;;;;;4839861;29;20065;-58
2023/05/14 01:23:23;;;;;;;30.85;17.35;;;10.10;99.90;;;;;;4839595;29;20046;-59
2023/05/14 01:25:52;;;;;;;31.35;18.75;;;10.10;99.90;;;;;;4839355;29;20064;-58
2023/05/14 01:28:28;;;;;;;37.42;18.35;;;10.20;99.90;;;;;;4840002;29;20057;-58
2023/05/14 01:31:04;;;;;;;33.03;18.75;;;10.10;99.90;;;;;;4836841;29;20054;-59
2023/05/14 01:33:34;;;;;;;34.58;19.02;;;10.10;99.90;;;;;;4835018;29;20061;-59
2023/05/14 01:36:02;;;;;;;30.80;18.00;;;10.10;99.90;;;;;;4838295;29;20490;-59
2023/05/14 01:38:32;;;;;;;34.25;18.15;;;10.10;99.90;;;;;;4826610;29;20050;-58
2023/05/14 01:41:03;;;;;;;32.53;18.75;;;10.10;99.90;;;;;;4841579;29;20057;-58
2023/05/14 01:43:33;;;;;;;36.20;17.95;;;10.00;99.90;;;;;;4841743;29;20050;-58
2023/05/14 01:46:01;;;;;;;35.00;19.57;;;10.00;99.90;;;;;;4840464;29;20050;-58
2023/05/14 01:48:29;;;;;;;30.52;17.88;;;10.00;99.90;;;;;;4825604;29;20329;-58
2023/05/14 01:50:57;;;;;;;38.25;19.70;;;10.00;99.90;;;;;;4843209;29;20057;-59
2023/05/14 01:53:27;;;;;;;35.97;18.88;;;10.00;99.90;;;;;;4829183;29;20053;-60
2023/05/14 01:55:56;;;;;;;34.97;18.38;;;10.00;99.90;;;;;;4844804;29;20054;-58
2023/05/14 01:58:25;;;;;;;35.00;18.92;;;9.90;99.90;;;;;;4828395;29;20662;-58
2023/05/14 02:00:53;;;;;;;33.85;19.90;;;10.00;99.90;;;;;;4830734;29;20049;-58
2023/05/14 02:03:21;;;;;;;34.20;18.13;;;9.90;99.90;;;;;;4842860;29;20491;-58
2023/05/14 02:05:48;;;;;;;34.72;20.08;;;9.80;99.90;;;;;;4841687;29;20054;-58
2023/05/14 02:08:17;;;;;;;34.08;18.67;;;9.80;99.90;;;;;;4826286;29;20525;-59
2023/05/14 02:10:45;;;;;;;34.63;19.60;;;9.80;99.90;;;;;;4841849;29;20050;-58
2023/05/14 02:13:16;;;;;;;33.75;18.20;;;9.70;99.90;;;;;;4840962;29;20046;-59
2023/05/14 02:15:44;;;;;;;37.55;20.58;;;9.70;99.90;;;;;;4842757;29;20052;-59
2023/05/14 02:18:12;;;;;;;37.25;20.30;;;9.70;99.90;;;;;;4840752;29;20061;-59
2023/05/14 02:20:40;;;;;;;35.85;20.27;;;9.70;99.90;;;;;;4842724;29;20064;-58
2023/05/14 02:23:08;;;;;;;34.33;19.00;;;9.60;99.90;;;;;;4842540;29;20690;-58
2023/05/14 02:25:36;;;;;;;33.25;18.67;;;9.60;99.90;;;;;;4835519;29;20399;-58
2023/05/14 02:28:04;;;;;;;35.45;20.73;;;9.60;99.90;;;;;;4842647;29;20063;-58
2023/05/14 02:30:32;;;;;;;38.47;19.70;;;9.60;99.90;;;;;;4842134;29;20054;-58
2023/05/14 02:33:00;;;;;;;38.80;20.10;;;9.50;99.90;;;;;;4841918;29;20045;-60
2023/05/14 02:35:28;;;;;;;33.50;19.83;;;9.60;99.90;;;;;;4825238;29;20255;-59
2023/05/14 02:37:55;;;;;;;47.60;22.50;;;9.60;99.90;;;;;;4840589;29;20049;-59
2023/05/14 02:40:23;;;;;;;37.35;20.63;;;9.50;99.90;;;;;;4841358;29;20049;-59
2023/05/14 02:42:51;;;;;;;37.58;20.05;;;9.50;99.90;;;;;;4826087;29;20054;-58
2023/05/14 02:45:20;;;;;;;40.47;20.52;;;9.50;99.90;;;;;;4826065;29;20056;-58
2023/05/14 02:47:48;;;;;;;34.25;19.67;;;9.50;99.90;;;;;;4840799;29;20049;-58
2023/05/14 02:50:16;;;;;;;35.28;19.95;;;9.50;99.90;;;;;;4841201;29;20060;-59
2023/05/14 02:52:44;;;;;;;37.03;20.25;;;9.40;99.90;;;;;;4842522;29;20052;-58
2023/05/14 02:55:15;;;;;;;35.78;20.33;;;9.40;99.90;;;;;;4825883;29;20057;-59
2023/05/14 02:57:42;;;;;;;39.90;21.42;;;9.30;99.90;;;;;;4841809;29;20065;-58
2023/05/14 03:00:11;;;;;;;37.45;20.67;;;9.30;99.90;;;;;;4841670;29;20065;-58
2023/05/14 03:02:39;;;;;;;39.65;20.85;;;9.30;99.90;;;;;;4841327;29;20053;-58
2023/05/14 03:05:08;;;;;;;39.45;22.10;;;9.20;99.90;;;;;;4840512;29;20068;-58
2023/05/14 03:07:36;;;;;;;37.45;21.65;;;9.20;99.90;;;;;;4840589;29;20490;-58
2023/05/14 03:10:05;;;;;;;44.80;22.13;;;9.20;99.90;;;;;;4841939;29;20050;-57
2023/05/14 03:12:32;;;;;;;45.63;22.85;;;9.10;99.90;;;;;;4841320;29;20053;-58
2023/05/14 03:15:00;;;;;;;48.33;24.00;;;9.10;99.90;;;;;;4841665;29;20056;-59
2023/05/14 03:17:28;;;;;;;45.00;24.75;;;9.10;99.90;;;;;;4823973;29;20057;-60
2023/05/14 03:19:56;;;;;;;45.28;23.38;;;9.10;99.90;;;;;;4841768;29;20057;-59
2023/05/14 03:22:24;;;;;;;52.25;25.58;;;9.10;99.90;;;;;;4841569;29;20053;-58
2023/05/14 03:24:52;;;;;;;48.72;26.02;;;9.10;99.90;;;;;;4840904;29;20042;-58
2023/05/14 03:27:20;;;;;;;48.83;25.85;;;9.10;99.90;;;;;;4825598;29;20050;-59
2023/05/14 03:29:48;;;;;;;48.78;25.42;;;9.10;99.90;;;;;;4841701;29;20053;-59
2023/05/14 03:32:17;;;;;;;45.40;25.10;;;9.10;99.90;;;;;;4840716;29;20053;-59
2023/05/14 03:34:46;;;;;;;49.00;24.55;;;9.10;99.90;;;;;;4840624;29;20057;-58
2023/05/14 03:37:14;;;;;;;44.63;23.95;;;9.10;99.90;;;;;;4840885;29;20402;-58
2023/05/14 03:39:42;;;;;;;45.65;25.08;;;9.10;99.90;;;;;;4828227;29;20041;-59
2023/05/14 03:42:10;;;;;;;49.13;24.63;;;9.10;99.90;;;;;;4841172;29;20382;-59
2023/05/14 03:44:38;;;;;;;48.30;25.67;;;9.00;99.90;;;;;;4841468;29;20046;-59
2023/05/14 03:47:06;;;;;;;51.05;25.80;;;9.10;99.90;;;;;;4824957;29;20054;-59
2023/05/14 03:49:34;;;;;;;52.35;26.45;;;9.10;99.90;;;;;;4839407;29;20046;-57
2023/05/14 03:52:02;;;;;;;54.33;25.63;;;8.60;99.90;;;;;;4825377;29;20058;-58
2023/05/14 03:54:30;;;;;;;50.83;26.05;;;9.00;99.90;;;;;;4824949;29;20058;-61
2023/05/14 03:57:00;;;;;;;53.13;24.20;;;9.00;99.90;;;;;;4841446;29;20072;-58
2023/05/14 03:59:29;;;;;;;47.17;23.08;;;9.00;99.90;;;;;;4840717;29;20053;-58
2023/05/14 04:01:57;;;;;;;50.30;24.95;;;9.00;99.90;;;;;;4840242;29;20049;-58
2023/05/14 04:04:25;;;;;;;50.38;24.77;;;9.00;99.90;;;;;;4824847;29;20054;-58
2023/05/14 04:06:53;;;;;;;50.92;26.13;;;8.90;99.90;;;;;;4840044;29;20046;-58
2023/05/14 04:09:22;;;;;;;46.10;24.15;;;8.90;99.90;;;;;;4840948;29;20278;-58
2023/05/14 04:11:51;;;;;;;50.92;26.10;;;9.00;99.90;;;;;;4839261;29;20410;-58
2023/05/14 04:14:19;;;;;;;50.88;25.25;;;8.90;99.90;;;;;;4839756;29;20045;-59
2023/05/14 04:16:48;;;;;;;46.85;24.08;;;8.90;99.90;;;;;;4839862;29;20050;-58
2023/05/14 04:19:15;;;;;;;49.20;23.88;;;8.90;99.90;;;;;;4824283;29;20050;-58
2023/05/14 04:21:46;;;;;;;45.75;23.60;;;8.90;99.90;;;;;;4839691;29;20061;-58
2023/05/14 04:24:16;;;;;;;46.85;23.40;;;8.90;99.90;;;;;;4839027;29;20057;-59
2023/05/14 04:26:46;;;;;;;48.85;23.70;;;8.90;99.90;;;;;;4840903;29;20050;-58
2023/05/14 04:29:16;;;;;;;43.97;22.20;;;8.90;99.90;;;;;;4850766;29;20109;-58
2023/05/14 04:31:45;;;;;;;45.28;22.63;;;8.80;99.90;;;;;;4840827;29;20509;-57
2023/05/14 04:34:13;;;;;;;43.30;23.33;;;8.80;99.90;;;;;;4840741;29;20053;-58
2023/05/14 04:36:41;;;;;;;47.38;22.83;;;8.80;99.90;;;;;;4839816;29;20553;-58
2023/05/14 04:39:11;;;;;;;49.08;24.88;;;8.80;99.90;;;;;;4840749;29;20045;-60
2023/05/14 04:41:38;;;;;;;;;;;8.80;99.90;;;;;;4840715;29;20061;-58
2023/05/14 04:44:06;;;;;;;43.00;22.40;;;8.70;99.90;;;;;;4840664;29;19928;-58
2023/05/14 04:46:34;;;;;;;43.72;23.65;;;8.70;99.90;;;;;;4840366;29;20403;-58
2023/05/14 04:49:03;;;;;;;52.03;24.52;;;8.70;99.90;;;;;;4822234;29;20268;-59
2023/05/14 04:51:31;;;;;;;49.75;24.45;;;8.70;99.90;;;;;;4819591;29;20058;-58
2023/05/14 04:53:59;;;;;;;43.10;22.75;;;8.70;99.90;;;;;;4819144;29;20078;-58
2023/05/14 04:56:27;;;;;;;51.33;25.42;;;8.70;99.90;;;;;;4819031;29;20047;-58
2023/05/14 04:58:55;;;;;;;46.97;24.55;;;8.70;99.90;;;;;;4832190;29;20061;-58
2023/05/14 05:01:23;;;;;;;49.08;24.48;;;8.70;99.90;;;;;;4826408;29;20057;-58
2023/05/14 05:03:51;;;;;;;48.72;25.02;;;;;;;;;;4827443;29;20092;-59
2023/05/14 05:06:19;;;;;;;52.45;24.75;;;8.80;99.90;;;;;;4834042;29;20050;-59
2023/05/14 05:08:47;;;;;;;51.88;25.15;;;8.70;99.90;;;;;;4838674;29;20053;-59
2023/05/14 05:11:16;;;;;;;51.13;24.95;;;8.80;99.90;;;;;;4829698;29;20068;-59
2023/05/14 05:13:44;;;;;;;45.63;24.08;;;8.80;99.90;;;;;;4836347;29;20414;-58
2023/05/14 05:16:12;;;;;;;41.75;23.08;;;8.90;99.90;;;;;;4836750;29;20046;-59
2023/05/14 05:18:40;;;;;;;47.28;23.90;;;8.90;99.90;;;;;;4836556;29;20128;-60
2023/05/14 05:21:08;;;;;;;53.42;24.23;;;8.90;99.90;;;;;;4836757;29;20064;-57
2023/05/14 05:23:36;;;;;;;47.38;24.15;;;8.90;99.90;;;;;;4836906;29;20418;-60
2023/05/14 05:26:04;;;;;;;41.83;24.35;;;9.00;99.90;;;;;;4819942;29;20069;-58
2023/05/14 05:28:32;;;;;;;49.63;23.85;;;9.00;99.90;;;;;;4829680;29;20050;-59
2023/05/14 05:31:00;;;;;;;44.60;24.00;;;9.10;99.90;;;;;;4835754;29;20065;-59
2023/05/14 05:33:28;;;;;;;45.78;25.05;;;9.10;99.90;;;;;;4824192;29;20654;-60
2023/05/14 05:35:56;;;;;;;47.95;25.80;;;9.10;99.90;;;;;;4819678;29;20069;-58
2023/05/14 05:38:23;;;;;;;43.97;22.85;;;9.10;99.90;;;;;;4838604;29;20042;-60
2023/05/14 05:40:52;;;;;;;48.70;23.85;;;9.20;99.90;;;;;;4819056;29;20080;-59
2023/05/14 05:43:19;;;;;;;47.42;24.15;;;9.20;99.90;;;;;;4829399;29;20498;-58
2023/05/14 05:45:48;;;;;;;46.17;23.98;;;;;;;;;;4837825;29;20588;-59
2023/05/14 05:48:16;;;;;;;47.55;23.92;;;9.30;99.90;;;;;;4837146;29;20061;-58
2023/05/14 05:50:47;;;;;;;46.58;23.98;;;9.30;99.90;;;;;;4839523;29;20057;-59
2023/05/14 05:53:17;;;;;;;50.80;25.67;;;9.40;99.90;;;;;;4840275;29;20490;-58
2023/05/14 05:55:45;;;;;;;45.95;24.80;;;9.40;99.90;;;;;;4836957;29;20076;-58
2023/05/14 05:58:14;;;;;;;47.30;23.23;;;9.40;99.90;;;;;;4813762;29;20046;-58
2023/05/14 06:00:42;;;;;;;46.30;24.40;;;9.50;99.90;;;;;;4837231;29;20414;-59
2023/05/14 06:03:10;;;;;;;45.78;24.08;;;9.60;99.90;;;;;;4836219;29;20049;-58
2023/05/14 06:05:38;;;;;;;43.78;24.40;;;9.60;99.90;;;;;;4831940;29;20058;-58
2023/05/14 06:08:06;;;;;;;47.88;24.48;;;9.70;99.90;;;;;;4824576;29;20061;-59
2023/05/14 06:10:37;;;;;;;46.38;25.02;;;9.70;99.90;;;;;;4829550;29;20066;-59
2023/05/14 06:13:05;;;;;;;46.28;24.17;;;9.70;99.90;;;;;;4830944;29;20045;-60
2023/05/14 06:15:33;;;;;;;46.50;23.63;;;9.80;99.90;;;;;;4839672;29;20050;-58
2023/05/14 06:18:01;;;;;;;46.28;23.50;;;9.80;99.90;;;;;;4834782;29;20058;-58
2023/05/14 06:20:29;;;;;;;47.58;25.17;;;9.90;99.90;;;;;;4827454;29;20058;-60
2023/05/14 06:22:58;;;;;;;47.75;24.17;;;9.90;99.90;;;;;;4836047;29;20065;-59
2023/05/14 06:25:26;;;;;;;42.28;23.23;;;10.00;99.90;;;;;;4835037;29;20058;-59
2023/05/14 06:27:54;;;;;;;44.28;24.45;;;10.10;99.90;;;;;;4825459;29;20057;-59
2023/05/14 06:30:23;;;;;;;45.97;24.52;;;10.10;99.90;;;;;;4833541;29;20058;-58
2023/05/14 06:32:52;;;;;;;45.22;23.45;;;10.10;99.90;;;;;;4837936;29;20526;-59
2023/05/14 06:35:21;;;;;;;47.95;23.60;;;10.20;99.90;;;;;;4838917;29;20058;-59
2023/05/14 06:37:49;;;;;;;39.63;22.63;;;10.20;99.90;;;;;;4838102;29;20057;-59
2023/05/14 06:40:17;;;;;;;42.38;23.33;;;10.30;99.90;;;;;;4837748;29;20414;-58
2023/05/14 06:42:45;;;;;;;42.78;23.27;;;10.30;99.90;;;;;;4830721;29;20050;-59
2023/05/14 06:45:13;;;;;;;41.85;22.63;;;10.40;99.90;;;;;;4839424;29;20053;-59
2023/05/14 06:47:41;;;;;;;38.45;22.13;;;10.50;99.90;;;;;;4836932;29;20300;-59
2023/05/14 06:50:09;;;;;;;38.15;21.38;;;10.60;99.90;;;;;;4839343;29;20089;-59
2023/05/14 06:52:37;;;;;;;38.60;21.30;;;10.70;99.90;;;;;;4833315;29;20042;-62
2023/05/14 06:55:06;;;;;;;38.88;21.98;;;10.70;99.90;;;;;;4828707;29;20511;-60
2023/05/14 06:57:33;;;;;;;38.17;22.25;;;10.80;99.90;;;;;;4824577;29;20053;-59
2023/05/14 07:00:03;;;;;;;36.17;20.92;;;10.90;99.90;;;;;;4837917;29;20041;-60
2023/05/14 07:02:32;;;;;;;37.50;20.83;;;11.00;99.90;;;;;;4835694;29;20077;-59
2023/05/14 07:05:00;;;;;;;42.10;22.83;;;11.00;99.90;;;;;;4835051;29;20061;-59
2023/05/14 07:07:28;;;;;;;35.90;20.27;;;11.10;99.90;;;;;;4836762;29;20391;-59
2023/05/14 07:09:56;;;;;;;38.45;22.60;;;11.20;99.90;;;;;;4838373;29;20061;-58
2023/05/14 07:12:24;;;;;;;37.60;20.25;;;11.20;99.90;;;;;;4830216;29;20499;-59
2023/05/14 07:14:52;;;;;;;39.83;21.60;;;;;;;;;;4838507;29;20064;-59
2023/05/14 07:17:20;;;;;;;39.60;21.23;;;11.30;99.90;;;;;;4830562;29;20121;-59
2023/05/14 07:19:49;;;;;;;38.05;22.20;;;;;;;;;;4834482;29;20046;-60
2023/05/14 07:22:20;;;;;;;34.53;20.90;;;11.40;99.90;;;;;;4837903;29;20061;-59
2023/05/14 07:24:49;;;;;;;38.40;21.27;;;11.50;99.90;;;;;;4838634;29;20498;-60
2023/05/14 07:27:17;;;;;;;36.42;21.27;;;11.60;99.90;;;;;;4819304;29;20050;-59
2023/05/14 07:29:45;;;;;;;38.13;22.35;;;11.70;99.90;;;;;;4838053;29;20068;-59
2023/05/14 07:32:12;;;;;;;37.55;20.73;;;11.80;99.90;;;;;;4837778;29;20062;-59
2023/05/14 07:34:42;;;;;;;32.65;20.60;;;11.90;99.90;;;;;;4823646;29;20051;-61
2023/05/14 07:37:10;;;;;;;34.80;20.67;;;12.00;99.90;;;;;;4820460;29;20510;-60
2023/05/14 07:39:40;;;;;;;34.42;20.17;;;12.10;99.90;;;;;;4836674;29;20054;-58
2023/05/14 07:42:08;;;;;;;36.47;19.85;;;12.20;99.90;;;;;;4833792;29;20046;-59
2023/05/14 07:44:36;;;;;;;34.38;20.13;;;12.30;99.90;;;;;;4834522;29;20049;-59
2023/05/14 07:47:07;;;;;;;31.08;18.60;;;12.40;99.90;;;;;;4834134;29;20049;-60
2023/05/14 07:49:35;;;;;;;33.00;18.40;;;12.50;99.90;;;;;;4835030;29;20052;-58
2023/05/14 07:52:03;;;;;;;31.60;19.17;;;12.70;99.90;;;;;;4819253;29;20050;-59
2023/05/14 07:54:31;;;;;;;31.58;17.98;;;12.60;99.90;;;;;;4837487;29;20057;-58
2023/05/14 07:56:59;;;;;;;29.95;17.90;;;12.80;99.90;;;;;;4832652;29;20045;-64
2023/05/14 07:59:27;;;;;;;29.98;17.02;;;12.90;99.90;;;;;;4837358;29;20209;-60
2023/05/14 08:01:56;;;;;;;27.17;17.02;;;13.10;99.90;;;;;;4836448;29;20050;-60
2023/05/14 08:04:24;;;;;;;26.00;15.32;;;13.10;99.90;;;;;;4837694;29;20058;-60
2023/05/14 08:06:52;;;;;;;24.95;15.05;;;13.20;99.90;;;;;;4837450;29;20065;-58
2023/05/14 08:09:19;;;;;;;23.40;14.45;;;13.20;99.90;;;;;;4837282;29;20582;-59
2023/05/14 08:11:50;;;;;;;22.63;14.15;;;13.40;99.90;;;;;;4834607;29;20068;-61
2023/05/14 08:14:18;;;;;;;25.27;13.00;;;13.50;99.90;;;;;;4837234;29;20042;-60
2023/05/14 08:16:47;;;;;;;18.83;12.02;;;13.60;99.90;;;;;;4837218;29;20034;-61
2023/05/14 08:19:15;;;;;;;19.45;12.25;;;13.60;99.90;;;;;;4836999;29;20068;-60
2023/05/14 08:21:46;;;;;;;19.27;12.07;;;13.70;99.90;;;;;;4837261;29;20573;-61
2023/05/14 08:24:18;;;;;;;19.23;12.02;;;13.70;99.90;;;;;;4834721;29;20061;-61
2023/05/14 08:26:46;;;;;;;19.38;13.65;;;13.90;99.90;;;;;;4804167;29;20058;-61
2023/05/14 08:29:14;;;;;;;20.42;12.93;;;14.00;99.90;;;;;;4833238;29;20245;-62
2023/05/14 08:31:48;;;;;;;21.30;13.20;;;14.00;99.90;;;;;;4834490;29;20076;-60
2023/05/14 08:34:17;;;;;;;23.10;13.80;;;14.10;99.90;;;;;;4837323;29;20049;-61
2023/05/14 08:36:45;;;;;;;20.60;12.55;;;14.20;99.90;;;;;;4836773;29;20046;-60
2023/05/14 08:39:13;;;;;;;22.75;13.48;;;14.30;99.90;;;;;;4836091;29;20058;-61
2023/05/14 08:41:40;;;;;;;21.77;12.93;;;14.40;99.90;;;;;;4835039;29;20054;-60
2023/05/14 08:44:15;;;;;;;23.98;15.25;;;14.40;99.90;;;;;;4831312;29;20046;-60
2023/05/14 08:46:48;;;;;;;21.67;13.00;;;14.50;99.90;;;;;;4831424;29;20065;-60
2023/05/14 08:49:42;;;;;;;19.42;12.65;;;14.60;99.90;;;;;;4829858;29;20735;-59
2023/05/14 08:52:11;;;;;;;21.13;12.57;;;14.90;99.90;;;;;;4836655;29;20514;-59
2023/05/14 08:54:39;;;;;;;19.42;13.13;;;14.90;99.90;;;;;;4833889;29;20402;-59
2023/05/14 08:57:11;;;;;;;18.92;12.48;;;15.00;99.90;;;;;;4823797;29;20046;-58
2023/05/14 08:59:42;;;;;;;23.67;13.82;;;15.00;99.90;;;;;;4821107;29;20053;-60
2023/05/14 09:02:13;;;;;;;21.80;13.15;;;15.20;99.90;;;;;;4834644;29;20046;-59
2023/05/14 09:04:41;;;;;;;21.60;14.23;;;15.30;99.90;;;;;;4840641;29;20642;-60
2023/05/14 09:07:10;;;;;;;20.65;13.35;;;15.50;99.90;;;;;;4839474;29;20426;-60
2023/05/14 09:09:39;;;;;;;19.77;13.45;;;15.60;99.90;;;;;;4839447;29;20046;-59
2023/05/14 09:12:07;;;;;;;21.60;13.40;;;15.80;99.90;;;;;;4839131;29;20042;-59
2023/05/14 09:14:35;;;;;;;22.00;14.00;;;16.00;99.90;;;;;;4839666;29;20061;-59
2023/05/14 09:17:03;;;;;;;23.48;13.70;;;16.20;99.90;;;;;;4824692;29;20073;-60
2023/05/14 09:19:31;;;;;;;16.25;10.73;;;16.30;99.90;;;;;;4832185;29;20411;-60
2023/05/14 09:21:59;;;;;;;17.10;11.57;;;16.60;99.90;;;;;;4827676;29;20062;-60
2023/05/14 09:24:30;;;;;;;13.63;9.95;;;16.60;99.90;;;;;;4839750;29;20065;-59
2023/05/14 09:26:58;;;;;;;15.27;9.93;;;16.70;99.90;;;;;;4822606;29;20046;-60
2023/05/14 09:29:28;;;;;;;15.45;10.57;;;17.00;99.90;;;;;;4830320;29;20058;-60
2023/05/14 09:31:58;;;;;;;14.93;10.30;;;17.00;99.90;;;;;;4838548;29;20365;-60
2023/05/14 09:34:28;;;;;;;13.98;10.43;;;17.10;99.90;;;;;;4838177;29;20065;-60
2023/05/14 09:36:57;;;;;;;15.37;10.07;;;17.20;99.90;;;;;;4838901;29;20398;-59
2023/05/14 09:39:25;;;;;;;14.27;10.00;;;17.20;99.90;;;;;;4822346;29;20301;-60
2023/05/14 09:41:54;;;;;;;15.88;10.63;;;17.40;99.90;;;;;;4826253;29;20509;-60
2023/05/14 09:44:23;;;;;;;16.33;10.55;;;18.10;99.90;;;;;;4822568;29;20074;-60
2023/05/14 09:46:53;;;;;;;13.60;9.40;;;17.40;99.90;;;;;;4821703;29;20057;-61
2023/05/14 09:49:23;;;;;;;14.15;9.52;;;17.50;99.90;;;;;;4834698;29;20062;-61
2023/05/14 09:51:52;;;;;;;12.63;9.60;;;17.60;99.90;;;;;;4821377;29;20050;-59
2023/05/14 09:54:20;;;;;;;11.57;7.18;;;17.70;99.90;;;;;;4839053;29;20062;-60
2023/05/14 09:56:48;;;;;;;9.05;6.03;;;17.80;99.90;;;;;;4839289;29;20399;-60
2023/05/14 09:59:16;;;;;;;8.93;5.68;;;17.90;99.90;;;;;;4837571;29;20984;-59
2023/05/14 10:01:45;;;;;;;10.10;6.57;;;18.00;99.90;;;;;;4839245;29;20054;-61
2023/05/14 10:04:13;;;;;;;8.32;6.22;;;18.00;99.90;;;;;;4826485;29;20054;-61
2023/05/14 10:06:45;;;;;;;15.27;8.10;;;18.10;99.90;;;;;;4822557;29;20438;-60
2023/05/14 10:09:15;;;;;;;8.25;6.55;;;18.20;99.90;;;;;;4836705;29;20049;-59
2023/05/14 10:11:51;;;;;;;9.27;6.72;;;18.30;99.90;;;;;;4838068;29;20061;-60
2023/05/14 10:14:28;;;;;;;8.18;6.30;;;18.30;99.90;;;;;;4836457;29;20057;-60
2023/05/14 10:16:59;;;;;;;7.00;4.78;;;18.30;99.90;;;;;;4839491;29;20855;-61
2023/05/14 10:19:31;;;;;;;7.15;5.00;;;18.30;99.90;;;;;;4839153;29;20073;-61
2023/05/14 10:22:03;;;;;;;9.10;5.65;;;18.40;99.90;;;;;;4838243;29;20054;-61
2023/05/14 10:24:32;;;;;;;7.30;5.15;;;18.40;99.90;;;;;;4838679;29;20046;-60
2023/05/14 10:27:00;;;;;;;5.30;4.32;;;18.40;99.90;;;;;;4839641;29;20049;-61
2023/05/14 10:29:36;;;;;;;6.40;4.57;;;18.30;99.90;;;;;;4822994;29;20070;-61
2023/05/14 10:32:08;;;;;;;7.80;5.53;;;18.40;99.90;;;;;;4835154;29;20045;-60
2023/05/14 10:34:42;;;;;;;7.47;5.15;;;15.80;99.90;;;;;;4820491;29;20514;-59
2023/05/14 10:37:14;;;;;;;8.70;6.00;;;18.50;99.90;;;;;;4834604;29;20042;-61
2023/05/14 10:39:50;;;;;;;7.63;5.43;;;18.60;99.90;;;;;;4836978;29;20053;-60
2023/05/14 10:42:34;;;;;;;5.47;3.97;;;18.80;99.90;;;;;;4833839;29;20046;-61
2023/05/14 10:45:06;;;;;;;5.78;4.38;;;18.80;99.90;;;;;;4835697;29;20049;-62
2023/05/14 10:47:39;;;;;;;5.72;3.88;;;19.00;99.90;;;;;;4835981;29;20410;-60
2023/05/14 10:50:12;;;;;;;6.00;3.30;;;19.10;99.90;;;;;;4836615;29;20042;-60
2023/05/14 10:52:42;;;;;;;4.07;3.03;;;19.20;99.90;;;;;;4836479;29;20387;-60
2023/05/14 10:55:15;;;;;;;6.20;3.90;;;19.20;99.90;;;;;;4831150;29;20399;-59
2023/05/14 10:57:45;;;;;;;6.07;4.30;;;19.30;99.90;;;;;;4835751;29;20045;-63
2023/05/14 11:00:16;;;;;;;7.50;4.00;;;19.50;99.90;;;;;;4820498;29;20495;-61
2023/05/14 11:02:45;;;;;;;6.55;3.80;;;19.70;99.90;;;;;;4821995;29;20061;-63
2023/05/14 11:05:15;;;;;;;4.95;3.25;;;19.80;99.90;;;;;;4833611;29;20050;-63
2023/05/14 11:07:49;;;;;;;5.95;5.00;;;19.90;99.90;;;;;;4836628;29;20041;-63
2023/05/14 11:10:18;;;;;;;11.63;4.28;;;20.10;99.90;;;;;;4835534;29;20045;-62
2023/05/14 11:12:48;;;;;;;9.40;5.93;;;20.30;99.90;;;;;;4836889;29;20509;-61
2023/05/14 11:15:20;;;;;;;9.57;5.15;;;20.20;99.90;;;;;;4825039;29;20700;-61
2023/05/14 11:17:50;;;;;;;7.05;4.40;;;20.50;99.90;;;;;;4834868;29;20057;-63
2023/05/14 11:20:18;;;;;;;4.82;3.05;;;20.70;99.90;;;;;;4836807;29;20049;-61
2023/05/14 11:22:48;;;;;;;4.38;2.50;;;20.80;99.80;;;;;;4835878;29;20050;-61
2023/05/14 11:25:17;;;;;;;7.15;2.80;;;20.90;98.40;;;;;;4827103;29;20607;-61
2023/05/14 11:27:51;;;;;;;4.70;3.40;;;20.80;96.90;;;;;;4831838;29;20410;-61
2023/05/14 11:30:19;;;;;;;4.72;3.35;;;20.80;96.90;;;;;;4836238;29;20049;-61
2023/05/14 11:32:50;;;;;;;6.05;4.00;;;20.80;98.10;;;;;;4836012;29;20522;-62
2023/05/14 11:35:18;;;;;;;4.82;3.38;;;22.20;98.70;;;;;;4828804;29;20054;-60
2023/05/14 11:37:53;;;;;;;7.53;4.05;;;21.00;98.90;;;;;;4828149;29;20057;-61
2023/05/14 11:40:21;;;;;;;4.45;3.50;;;21.20;97.50;;;;;;4829728;29;20069;-61
2023/05/14 11:42:52;;;;;;;6.55;4.07;;;21.40;96.90;;;;;;4825589;29;20050;-62
2023/05/14 11:45:26;;;;;;;6.82;4.18;;;21.30;97.20;;;;;;4826921;29;20057;-62
2023/05/14 11:47:57;;;;;;;4.55;3.67;;;21.50;97.70;;;;;;4830793;29;20049;-61
2023/05/14 11:50:28;;;;;;;4.40;3.22;;;21.80;95.60;;;;;;4829501;29;20069;-60
2023/05/14 11:52:56;;;;;;;3.35;2.60;;;21.90;94.70;;;;;;4828535;29;20058;-61
2023/05/14 11:55:24;;;;;;;2.97;2.28;;;21.80;94.90;;;;;;4837280;29;20530;-62
2023/05/14 11:57:53;;;;;;;3.22;2.55;;;21.90;95.60;;;;;;4836752;29;20062;-61
2023/05/14 12:00:23;;;;;;;3.05;1.95;;;22.10;95.70;;;;;;4824591;29;20053;-62
2023/05/14 12:02:53;;;;;;;4.95;2.80;;;22.30;95.50;;;;;;4831621;29;20046;-62
2023/05/14 12:05:21;;;;;;;3.78;2.55;;;22.70;93.70;;;;;;4825788;29;20050;-61
2023/05/14 12:07:49;;;;;;;2.72;2.40;;;22.90;91.10;;;;;;4823600;29;20050;-60
2023/05/14 12:10:18;;;;;;;4.18;2.00;;;23.10;91.00;;;;;;4829047;29;20051;-62
2023/05/14 12:12:47;;;;;;;2.88;2.13;;;23.40;90.30;;;;;;4828891;29;20050;-62
2023/05/14 12:15:19;;;;;;;3.03;2.05;;;23.60;90.20;;;;;;4827601;29;20057;-60
2023/05/14 12:17:50;;;;;;;2.17;1.40;;;23.60;85.20;;;;;;4824853;29;20047;-63
2023/05/14 12:20:18;;;;;;;2.55;1.67;;;23.80;88.60;;;;;;4831219;29;20046;-63
2023/05/14 12:22:46;;;;;;;2.40;1.60;;;24.00;88.50;;;;;;4834469;29;20046;-60
2023/05/14 12:25:14;;;;;;;1.58;1.48;;;24.20;85.30;;;;;;4837351;29;20069;-61
2023/05/14 12:27:44;;;;;;;1.40;1.30;;;24.00;82.50;;;;;;4837172;29;20054;-62
2023/05/14 12:30:13;;;;;;;1.25;0.88;;;23.80;81.80;;;;;;4835400;29;20057;-62
2023/05/14 12:32:44;;;;;;;2.45;1.08;;;23.50;81.70;;;;;;4835960;29;20042;-61
2023/05/14 12:35:13;;;;;;;1.80;1.00;;;23.30;81.80;;;;;;4831382;29;20054;-61
2023/05/14 12:37:41;;;;;;;26.25;7.07;;;23.00;82.70;;;;;;4836490;29;20399;-60
2023/05/14 12:40:10;;;;;;;0.90;0.90;;;22.80;81.70;;;;;;4848921;29;20045;-61
2023/05/14 12:42:38;;;;;;;0.80;0.80;;;22.50;81.10;;;;;;4839574;29;20056;-62
2023/05/14 12:45:07;;;;;;;2.53;1.10;;;22.20;81.90;;;;;;4833977;29;21818;-60